Wetterdaten: Woche 05.09.11 - 11.09.11 (KW36)
Datum Zeit Temperatur Luftfeuchte Luftdruck Niederschlag Windrichtung Sonnenschein Solar Wind
05.09.2011 00:00 16,1 C 98 % 1010,4 hPa 0,6 l/m S-SW 0,00 h 0 W/m 6,2 km/h (2 Bft)
05.09.2011 01:00 16,3 C 99 % 1010,3 hPa 0,0 l/m SW 0,00 h 0 W/m 8,8 km/h (2 Bft)
05.09.2011 02:00 16,3 C 99 % 1010,3 hPa 0,2 l/m SW 0,00 h 0 W/m 6,8 km/h (2 Bft)
05.09.2011 03:00 16,4 C 99 % 1010,4 hPa 0,2 l/m SW 0,00 h 0 W/m 4,0 km/h (1 Bft)
05.09.2011 04:00 16,4 C 99 % 1010,3 hPa 2,8 l/m SW 0,00 h 0 W/m 4,3 km/h (1 Bft)
05.09.2011 05:00 15,7 C 99 % 1010,7 hPa 5,0 l/m W-NW 0,00 h 0 W/m 10,6 km/h (2 Bft)
05.09.2011 06:00 15,5 C 99 % 1011,1 hPa 0,8 l/m N 0,00 h 0 W/m 2,3 km/h (1 Bft)
05.09.2011 07:00 15,6 C 99 % 1011,8 hPa 1,0 l/m W-NW 0,00 h 15 W/m 3,5 km/h (1 Bft)
05.09.2011 08:00 16,0 C 99 % 1012,3 hPa 0,6 l/m N 0,00 h 43 W/m 2,8 km/h (1 Bft)
05.09.2011 09:00 16,1 C 98 % 1013,1 hPa 3,0 l/m N 0,00 h 50 W/m 8,4 km/h (2 Bft)
05.09.2011 10:00 12,9 C 95 % 1014,5 hPa 2,4 l/m NW 0,00 h 57 W/m 18,9 km/h (3 Bft)
05.09.2011 11:00 13,3 C 94 % 1015,3 hPa 0,2 l/m NW 0,00 h 146 W/m 8,7 km/h (2 Bft)
05.09.2011 12:00 14,1 C 93 % 1016,1 hPa 0,0 l/m NW 0,00 h 132 W/m 6,1 km/h (2 Bft)
05.09.2011 13:00 15,3 C 92 % 1016,5 hPa 0,0 l/m W 0,00 h 242 W/m 6,0 km/h (2 Bft)
05.09.2011 14:00 16,0 C 89 % 1016,8 hPa 0,0 l/m S-SW 0,00 h 160 W/m 11,2 km/h (2 Bft)
05.09.2011 15:00 16,3 C 86 % 1017,2 hPa 0,0 l/m SW 0,00 h 187 W/m 11,8 km/h (2 Bft)
05.09.2011 16:00 16,0 C 82 % 1018,0 hPa 0,0 l/m W-SW 0,00 h 143 W/m 11,3 km/h (2 Bft)
05.09.2011 17:00 16,2 C 83 % 1018,6 hPa 0,0 l/m SW 0,08 h 149 W/m 13,8 km/h (3 Bft)
05.09.2011 18:00 16,3 C 83 % 1018,9 hPa 0,0 l/m SW 0,75 h 163 W/m 13,2 km/h (3 Bft)
05.09.2011 19:00 14,9 C 86 % 1019,3 hPa 0,0 l/m W-SW 0,00 h 21 W/m 10,7 km/h (2 Bft)
05.09.2011 20:00 14,3 C 92 % 1020,3 hPa 0,0 l/m SW 0,00 h 0 W/m 9,4 km/h (2 Bft)
05.09.2011 21:00 14,2 C 90 % 1021,5 hPa 0,0 l/m W-SW 0,00 h 0 W/m 11,8 km/h (2 Bft)
05.09.2011 22:00 13,4 C 92 % 1022,0 hPa 0,0 l/m W-SW 0,00 h 0 W/m 8,0 km/h (2 Bft)
05.09.2011 23:00 13,1 C 89 % 1022,6 hPa 0,0 l/m W-SW 0,00 h 0 W/m 7,5 km/h (2 Bft)
06.09.2011 00:00 12,0 C 89 % 1023,1 hPa 0,2 l/m W 0,00 h 0 W/m 5,6 km/h (1 Bft)
06.09.2011 01:00 10,3 C 94 % 1023,6 hPa 0,0 l/m N 0,00 h 0 W/m 0,8 km/h (0 Bft)
06.09.2011 02:00 9,6 C 97 % 1023,7 hPa 0,0 l/m N 0,00 h 0 W/m 0,0 km/h (0 Bft)
06.09.2011 03:00 9,1 C 97 % 1023,9 hPa 0,0 l/m N 0,00 h 0 W/m 0,0 km/h (0 Bft)
06.09.2011 04:00 9,0 C 98 % 1024,0 hPa 0,0 l/m N 0,00 h 0 W/m 0,1 km/h (0 Bft)
06.09.2011 05:00 8,7 C 98 % 1023,9 hPa 0,0 l/m N 0,00 h 0 W/m 0,0 km/h (0 Bft)
06.09.2011 06:00 8,4 C 99 % 1023,7 hPa 0,0 l/m N 0,00 h 6 W/m 0,0 km/h (0 Bft)
06.09.2011 07:00 8,3 C 99 % 1023,4 hPa 0,0 l/m N 0,00 h 39 W/m 0,1 km/h (0 Bft)
06.09.2011 08:00 9,3 C 99 % 1023,2 hPa 0,0 l/m N 0,33 h 149 W/m 0,3 km/h (0 Bft)
06.09.2011 09:00 12,6 C 99 % 1023,2 hPa 0,0 l/m S-SW 1,00 h 387 W/m 2,7 km/h (1 Bft)
06.09.2011 10:00 15,5 C 87 % 1023,0 hPa 0,0 l/m S-SW 0,92 h 519 W/m 9,3 km/h (2 Bft)
06.09.2011 11:00 17,1 C 74 % 1023,1 hPa 0,0 l/m S-SO 0,83 h 639 W/m 10,9 km/h (2 Bft)
06.09.2011 12:00 18,3 C 69 % 1022,3 hPa 0,0 l/m W-SW 0,92 h 800 W/m 14,9 km/h (3 Bft)
06.09.2011 13:00 19,4 C 63 % 1021,3 hPa 0,0 l/m SW 0,83 h 745 W/m 20,0 km/h (4 Bft)
06.09.2011 14:00 19,9 C 57 % 1020,4 hPa 0,0 l/m W-SW 1,00 h 690 W/m 17,3 km/h (3 Bft)
06.09.2011 15:00 20,1 C 59 % 1019,8 hPa 0,0 l/m W-SW 1,00 h 614 W/m 17,6 km/h (3 Bft)
06.09.2011 16:00 19,9 C 59 % 1019,2 hPa 0,0 l/m SW 1,00 h 521 W/m 17,0 km/h (3 Bft)
06.09.2011 17:00 19,5 C 60 % 1018,8 hPa 0,0 l/m SW 1,00 h 317 W/m 15,4 km/h (3 Bft)
06.09.2011 18:00 18,8 C 61 % 1018,1 hPa 0,0 l/m SW 1,00 h 204 W/m 15,0 km/h (3 Bft)
06.09.2011 19:00 16,6 C 71 % 1017,8 hPa 0,0 l/m W-SW 0,00 h 21 W/m 6,6 km/h (2 Bft)
06.09.2011 20:00 15,0 C 79 % 1017,6 hPa 0,0 l/m W-SW 0,00 h 0 W/m 5,6 km/h (1 Bft)
06.09.2011 21:00 14,1 C 86 % 1017,5 hPa 0,0 l/m W-SW 0,00 h 0 W/m 3,4 km/h (1 Bft)
06.09.2011 22:00 15,1 C 82 % 1017,3 hPa 0,0 l/m W-SW 0,00 h 0 W/m 12,8 km/h (3 Bft)
06.09.2011 23:00 14,4 C 87 % 1016,9 hPa 0,0 l/m SW 0,00 h 0 W/m 9,9 km/h (2 Bft)
07.09.2011 00:00 14,2 C 89 % 1016,3 hPa 0,0 l/m SW 0,00 h 0 W/m 10,6 km/h (2 Bft)
07.09.2011 01:00 14,9 C 80 % 1015,8 hPa 0,0 l/m SW 0,00 h 0 W/m 17,2 km/h (3 Bft)
07.09.2011 02:00 14,5 C 80 % 1015,3 hPa 0,0 l/m SW 0,00 h 0 W/m 10,3 km/h (2 Bft)
07.09.2011 03:00 13,4 C 87 % 1014,7 hPa 0,0 l/m SW 0,00 h 0 W/m 8,0 km/h (2 Bft)
07.09.2011 04:00 13,2 C 89 % 1014,2 hPa 0,0 l/m SW 0,00 h 0 W/m 9,7 km/h (2 Bft)
07.09.2011 05:00 13,5 C 84 % 1013,7 hPa 0,0 l/m W-SW 0,00 h 0 W/m 12,4 km/h (3 Bft)
07.09.2011 06:00 15,3 C 70 % 1013,3 hPa 0,0 l/m W-SW 0,00 h 0 W/m 26,3 km/h (4 Bft)
07.09.2011 07:00 15,5 C 69 % 1013,9 hPa 0,0 l/m W 0,00 h 18 W/m 23,6 km/h (4 Bft)
07.09.2011 08:00 15,0 C 73 % 1014,3 hPa 0,0 l/m W-SW 0,00 h 28 W/m 19,0 km/h (3 Bft)
07.09.2011 09:00 14,7 C 76 % 1014,7 hPa 0,0 l/m W-SW 0,00 h 57 W/m 20,1 km/h (4 Bft)
07.09.2011 10:00 13,5 C 84 % 1015,5 hPa 0,2 l/m SW 0,00 h 82 W/m 29,0 km/h (5 Bft)
07.09.2011 11:00 14,9 C 81 % 1015,2 hPa 0,0 l/m W-SW 0,00 h 189 W/m 28,7 km/h (4 Bft)
07.09.2011 12:00 16,1 C 78 % 1015,3 hPa 0,0 l/m W-SW 0,17 h 302 W/m 31,7 km/h (5 Bft)
07.09.2011 13:00 17,4 C 75 % 1014,5 hPa 0,0 l/m W-SW 0,67 h 562 W/m 35,5 km/h (5 Bft)
07.09.2011 14:00 18,4 C 72 % 1014,1 hPa 0,0 l/m W-SW 0,67 h 516 W/m 38,0 km/h (5 Bft)
07.09.2011 15:00 18,6 C 68 % 1014,0 hPa 0,0 l/m W-NW 0,75 h 522 W/m 38,3 km/h (5 Bft)
07.09.2011 16:00 18,7 C 67 % 1013,7 hPa 0,0 l/m W 0,58 h 357 W/m 28,8 km/h (5 Bft)
07.09.2011 17:00 17,7 C 71 % 1013,6 hPa 0,0 l/m W-SW 0,00 h 88 W/m 20,0 km/h (4 Bft)
07.09.2011 18:00 16,9 C 76 % 1013,8 hPa 0,0 l/m W-SW 0,00 h 35 W/m 22,9 km/h (4 Bft)
07.09.2011 19:00 16,3 C 78 % 1014,2 hPa 0,0 l/m W-SW 0,00 h 12 W/m 17,4 km/h (3 Bft)
07.09.2011 20:00 15,7 C 81 % 1014,6 hPa 0,0 l/m W-SW 0,00 h 0 W/m 7,4 km/h (2 Bft)
07.09.2011 21:00 15,5 C 84 % 1014,7 hPa 0,2 l/m W-SW 0,00 h 0 W/m 7,5 km/h (2 Bft)
07.09.2011 22:00 15,2 C 87 % 1014,6 hPa 0,0 l/m W-SW 0,00 h 0 W/m 8,4 km/h (2 Bft)
07.09.2011 23:00 15,7 C 80 % 1014,6 hPa 0,0 l/m W-NW 0,00 h 0 W/m 11,8 km/h (2 Bft)
08.09.2011 00:00 14,4 C 86 % 1014,8 hPa 0,0 l/m NW 0,00 h 0 W/m 5,5 km/h (1 Bft)
08.09.2011 01:00 13,9 C 82 % 1014,6 hPa 0,0 l/m W-NW 0,00 h 0 W/m 9,9 km/h (2 Bft)
08.09.2011 02:00 12,8 C 84 % 1013,9 hPa 0,0 l/m W-NW 0,00 h 0 W/m 6,4 km/h (2 Bft)
08.09.2011 03:00 12,7 C 83 % 1013,5 hPa 0,0 l/m W-SW 0,00 h 0 W/m 12,1 km/h (2 Bft)
08.09.2011 04:00 13,4 C 74 % 1013,3 hPa 0,0 l/m W 0,00 h 0 W/m 16,2 km/h (3 Bft)
08.09.2011 05:00 13,4 C 74 % 1013,0 hPa 0,0 l/m W 0,00 h 0 W/m 17,2 km/h (3 Bft)
08.09.2011 06:00 13,4 C 74 % 1013,0 hPa 0,0 l/m W-SW 0,00 h 0 W/m 15,8 km/h (3 Bft)
08.09.2011 07:00 13,0 C 79 % 1013,2 hPa 0,0 l/m W-SW 0,00 h 8 W/m 11,5 km/h (2 Bft)
08.09.2011 08:00 12,6 C 84 % 1013,2 hPa 0,2 l/m W-SW 0,00 h 21 W/m 8,0 km/h (2 Bft)
08.09.2011 09:00 12,9 C 85 % 1013,8 hPa 0,0 l/m W-SW 0,00 h 31 W/m 5,7 km/h (1 Bft)
08.09.2011 10:00 13,6 C 89 % 1014,2 hPa 0,0 l/m SW 0,00 h 80 W/m 6,4 km/h (2 Bft)
08.09.2011 11:00 15,0 C 83 % 1013,6 hPa 0,0 l/m W-SW 0,00 h 232 W/m 12,9 km/h (3 Bft)
08.09.2011 12:00 16,1 C 77 % 1013,3 hPa 0,0 l/m W-SW 0,00 h 242 W/m 17,3 km/h (3 Bft)
08.09.2011 13:00 17,2 C 74 % 1012,3 hPa 0,0 l/m W 0,08 h 315 W/m 26,7 km/h (4 Bft)
08.09.2011 14:00 17,8 C 68 % 1011,8 hPa 0,0 l/m SW 0,00 h 248 W/m 24,4 km/h (4 Bft)
08.09.2011 15:00 17,8 C 68 % 1011,3 hPa 0,0 l/m W-SW 0,00 h 137 W/m 22,7 km/h (4 Bft)
08.09.2011 16:00 18,0 C 66 % 1011,0 hPa 0,0 l/m W-SW 0,17 h 211 W/m 22,1 km/h (4 Bft)
08.09.2011 17:00 19,1 C 60 % 1010,7 hPa 0,0 l/m W-SW 0,58 h 252 W/m 23,9 km/h (4 Bft)
08.09.2011 18:00 18,0 C 59 % 1011,1 hPa 0,0 l/m W-SW 0,00 h 25 W/m 22,9 km/h (4 Bft)
08.09.2011 19:00 17,2 C 58 % 1011,5 hPa 0,0 l/m W 0,00 h 7 W/m 19,0 km/h (3 Bft)
08.09.2011 20:00 16,3 C 56 % 1012,2 hPa 0,0 l/m W 0,00 h 0 W/m 18,8 km/h (3 Bft)
08.09.2011 21:00 15,7 C 59 % 1012,9 hPa 0,0 l/m W 0,00 h 0 W/m 14,5 km/h (3 Bft)
08.09.2011 22:00 15,4 C 62 % 1013,1 hPa 0,0 l/m W-SW 0,00 h 0 W/m 10,7 km/h (2 Bft)
08.09.2011 23:00 15,2 C 68 % 1013,3 hPa 0,0 l/m W-SW 0,00 h 0 W/m 10,6 km/h (2 Bft)
09.09.2011 00:00 15,6 C 73 % 1013,2 hPa 0,0 l/m W-SW 0,00 h 0 W/m 16,4 km/h (3 Bft)
09.09.2011 01:00 16,2 C 75 % 1013,0 hPa 0,0 l/m W-SW 0,00 h 0 W/m 18,6 km/h (3 Bft)
09.09.2011 02:00 15,3 C 78 % 1012,8 hPa 0,0 l/m SW 0,00 h 0 W/m 12,5 km/h (3 Bft)
09.09.2011 03:00 15,2 C 80 % 1012,7 hPa 0,0 l/m SW 0,00 h 0 W/m 11,4 km/h (2 Bft)
09.09.2011 04:00 15,3 C 81 % 1012,6 hPa 0,0 l/m SW 0,00 h 0 W/m 14,2 km/h (3 Bft)
09.09.2011 05:00 14,9 C 84 % 1012,8 hPa 0,0 l/m SW 0,00 h 0 W/m 12,4 km/h (3 Bft)
09.09.2011 06:00 15,0 C 88 % 1013,1 hPa 0,0 l/m SW 0,00 h 5 W/m 12,2 km/h (2 Bft)
09.09.2011 07:00 14,9 C 89 % 1013,6 hPa 0,0 l/m SW 0,00 h 27 W/m 7,6 km/h (2 Bft)
09.09.2011 08:00 15,3 C 91 % 1013,9 hPa 0,0 l/m S-SW 0,08 h 63 W/m 12,4 km/h (3 Bft)
09.09.2011 09:00 16,5 C 89 % 1013,9 hPa 0,0 l/m SW 0,00 h 128 W/m 14,0 km/h (3 Bft)
09.09.2011 10:00 18,4 C 83 % 1013,7 hPa 0,0 l/m SW 0,33 h 269 W/m 15,6 km/h (3 Bft)
09.09.2011 11:00 19,5 C 81 % 1013,9 hPa 0,0 l/m S-SW 0,08 h 291 W/m 14,8 km/h (3 Bft)
09.09.2011 12:00 21,5 C 75 % 1013,6 hPa 0,0 l/m SW 0,75 h 631 W/m 21,6 km/h (4 Bft)
09.09.2011 13:00 22,4 C 72 % 1013,3 hPa 0,0 l/m SW 0,75 h 614 W/m 20,1 km/h (4 Bft)
09.09.2011 14:00 23,1 C 70 % 1012,8 hPa 0,0 l/m W-SW 0,92 h 659 W/m 21,0 km/h (4 Bft)
09.09.2011 15:00 23,4 C 68 % 1012,3 hPa 0,0 l/m SW 0,67 h 379 W/m 16,8 km/h (3 Bft)
09.09.2011 16:00 23,2 C 70 % 1012,2 hPa 0,0 l/m W 0,42 h 320 W/m 12,2 km/h (2 Bft)
09.09.2011 17:00 22,7 C 73 % 1012,0 hPa 0,0 l/m W-SW 0,00 h 119 W/m 5,7 km/h (1 Bft)
09.09.2011 18:00 22,1 C 79 % 1012,0 hPa 0,0 l/m N 0,00 h 40 W/m 0,8 km/h (0 Bft)
09.09.2011 19:00 21,0 C 86 % 1011,8 hPa 0,0 l/m N 0,00 h 13 W/m 0,4 km/h (0 Bft)
09.09.2011 20:00 18,9 C 92 % 1012,0 hPa 0,0 l/m N 0,00 h 0 W/m 0,3 km/h (0 Bft)
09.09.2011 21:00 17,6 C 95 % 1012,6 hPa 0,0 l/m W-SW 0,00 h 0 W/m 1,7 km/h (1 Bft)
09.09.2011 22:00 17,0 C 96 % 1012,7 hPa 0,0 l/m N 0,00 h 0 W/m 0,8 km/h (0 Bft)
09.09.2011 23:00 16,4 C 97 % 1012,7 hPa 0,0 l/m N 0,00 h 0 W/m 0,7 km/h (0 Bft)
10.09.2011 00:00 16,2 C 98 % 1012,6 hPa 0,0 l/m N 0,00 h 0 W/m 1,6 km/h (1 Bft)
10.09.2011 01:00 16,1 C 98 % 1012,3 hPa 0,0 l/m W-SW 0,00 h 0 W/m 2,3 km/h (1 Bft)
10.09.2011 02:00 15,2 C 98 % 1012,2 hPa 0,0 l/m N 0,00 h 0 W/m 0,9 km/h (0 Bft)
10.09.2011 03:00 14,9 C 98 % 1012,1 hPa 0,0 l/m W-SW 0,00 h 0 W/m 2,1 km/h (1 Bft)
10.09.2011 04:00 14,3 C 98 % 1012,0 hPa 0,0 l/m W-SW 0,00 h 0 W/m 3,2 km/h (1 Bft)
10.09.2011 05:00 13,7 C 98 % 1011,7 hPa 0,0 l/m W-SW 0,00 h 0 W/m 2,3 km/h (1 Bft)
10.09.2011 06:00 13,1 C 98 % 1011,9 hPa 0,0 l/m N 0,00 h 6 W/m 1,7 km/h (1 Bft)
10.09.2011 07:00 13,1 C 99 % 1012,3 hPa 0,0 l/m N 0,17 h 48 W/m 1,7 km/h (1 Bft)
10.09.2011 08:00 14,3 C 98 % 1012,5 hPa 0,0 l/m N 1,00 h 198 W/m 1,3 km/h (1 Bft)
10.09.2011 09:00 16,8 C 92 % 1012,4 hPa 0,0 l/m W-SW 1,00 h 369 W/m 3,9 km/h (1 Bft)
10.09.2011 10:00 19,2 C 83 % 1012,6 hPa 0,0 l/m S 1,00 h 528 W/m 4,8 km/h (1 Bft)
10.09.2011 11:00 21,6 C 77 % 1012,3 hPa 0,0 l/m S-SW 1,00 h 653 W/m 8,4 km/h (2 Bft)
10.09.2011 12:00 23,9 C 69 % 1011,9 hPa 0,0 l/m S 1,00 h 730 W/m 9,3 km/h (2 Bft)
10.09.2011 13:00 25,4 C 66 % 1011,4 hPa 0,0 l/m S-SW 1,00 h 748 W/m 10,9 km/h (2 Bft)
10.09.2011 14:00 26,6 C 65 % 1011,0 hPa 0,0 l/m S-SW 1,00 h 718 W/m 11,2 km/h (2 Bft)
10.09.2011 15:00 27,4 C 60 % 1010,5 hPa 0,0 l/m W-SW 1,00 h 640 W/m 10,3 km/h (2 Bft)
10.09.2011 16:00 27,5 C 52 % 1010,1 hPa 0,0 l/m W-SW 1,00 h 525 W/m 12,2 km/h (2 Bft)
10.09.2011 17:00 26,8 C 51 % 1009,9 hPa 0,0 l/m W-SW 1,00 h 366 W/m 11,4 km/h (2 Bft)
10.09.2011 18:00 25,2 C 59 % 1009,8 hPa 0,0 l/m W-SW 0,83 h 172 W/m 7,9 km/h (2 Bft)
10.09.2011 19:00 22,3 C 73 % 1010,1 hPa 0,0 l/m W-SW 0,08 h 19 W/m 2,5 km/h (1 Bft)
10.09.2011 20:00 20,4 C 82 % 1010,8 hPa 0,0 l/m W-SW 0,00 h 0 W/m 2,5 km/h (1 Bft)
10.09.2011 21:00 19,3 C 87 % 1011,2 hPa 0,0 l/m N 0,00 h 0 W/m 1,1 km/h (0 Bft)
10.09.2011 22:00 18,1 C 92 % 1011,3 hPa 0,0 l/m N 0,00 h 0 W/m 0,1 km/h (0 Bft)
10.09.2011 23:00 17,3 C 94 % 1011,4 hPa 0,0 l/m N 0,00 h 0 W/m 0,5 km/h (0 Bft)
11.09.2011 00:00 17,0 C 94 % 1011,6 hPa 0,0 l/m N 0,00 h 0 W/m 1,2 km/h (1 Bft)
11.09.2011 01:00 16,3 C 95 % 1011,8 hPa 0,0 l/m N 0,00 h 0 W/m 1,9 km/h (1 Bft)
11.09.2011 02:00 15,4 C 96 % 1011,8 hPa 0,0 l/m N 0,00 h 0 W/m 1,2 km/h (1 Bft)
11.09.2011 03:00 14,9 C 96 % 1011,9 hPa 0,0 l/m N 0,00 h 0 W/m 0,3 km/h (0 Bft)
11.09.2011 04:00 14,8 C 96 % 1012,0 hPa 0,0 l/m N 0,00 h 0 W/m 0,8 km/h (0 Bft)
11.09.2011 05:00 13,9 C 97 % 1012,1 hPa 0,0 l/m N 0,00 h 0 W/m 0,1 km/h (0 Bft)
11.09.2011 06:00 13,5 C 98 % 1012,3 hPa 0,0 l/m N 0,00 h 5 W/m 0,0 km/h (0 Bft)
11.09.2011 07:00 13,5 C 98 % 1012,3 hPa 0,0 l/m N 0,00 h 42 W/m 0,5 km/h (0 Bft)
11.09.2011 08:00 15,6 C 96 % 1012,2 hPa 0,0 l/m W-SW 0,92 h 191 W/m 1,6 km/h (1 Bft)
11.09.2011 09:00 19,1 C 84 % 1011,9 hPa 0,0 l/m SW 1,00 h 312 W/m 6,6 km/h (2 Bft)
11.09.2011 10:00 21,6 C 75 % 1011,7 hPa 0,0 l/m SW 1,00 h 510 W/m 6,8 km/h (2 Bft)
11.09.2011 11:00 23,9 C 68 % 1011,1 hPa 0,0 l/m S 1,00 h 619 W/m 7,6 km/h (2 Bft)
11.09.2011 12:00 25,4 C 64 % 1010,2 hPa 0,0 l/m S 1,00 h 652 W/m 6,8 km/h (2 Bft)
11.09.2011 13:00 26,4 C 60 % 1009,3 hPa 0,0 l/m S 1,00 h 606 W/m 9,1 km/h (2 Bft)
11.09.2011 14:00 27,3 C 54 % 1008,9 hPa 0,0 l/m S-SW 1,00 h 720 W/m 7,6 km/h (2 Bft)
11.09.2011 15:00 27,3 C 51 % 1008,5 hPa 0,0 l/m W-SW 0,83 h 488 W/m 8,4 km/h (2 Bft)
11.09.2011 16:00 26,9 C 55 % 1008,2 hPa 0,0 l/m SW 0,75 h 388 W/m 8,6 km/h (2 Bft)
11.09.2011 17:00 25,1 C 61 % 1008,1 hPa 0,0 l/m W 0,42 h 185 W/m 8,2 km/h (2 Bft)
11.09.2011 18:00 23,5 C 64 % 1008,8 hPa 0,0 l/m W-SW 0,00 h 36 W/m 8,9 km/h (2 Bft)
11.09.2011 19:00 20,6 C 73 % 1010,4 hPa 0,8 l/m W-NW 0,00 h 5 W/m 12,1 km/h (2 Bft)
11.09.2011 20:00 18,3 C 93 % 1011,6 hPa 2,0 l/m W 0,00 h 0 W/m 8,6 km/h (2 Bft)
11.09.2011 21:00 17,6 C 96 % 1011,7 hPa 1,4 l/m SW 0,00 h 0 W/m 12,1 km/h (2 Bft)
11.09.2011 22:00 17,1 C 97 % 1011,7 hPa 0,0 l/m SW 0,00 h 0 W/m 14,8 km/h (3 Bft)
11.09.2011 23:00 16,1 C 96 % 1012,5 hPa 8,6 l/m W 0,00 h 0 W/m 13,9 km/h (3 Bft)
Min-Datum _ 06.09.11 10.09.11 11.09.11 - - - - 05.09.11
_ Min-Zeit 07:05 17:00 17:05 - - - - 06:05
Minimum _ 8,2 C 49 % 1008,0 hPa - - - - 0,0 km/h (0 Bft)
Max-Datum _ 11.09.11 06.09.11 06.09.11 11.09.11 - 05.09.11 09.09.11 07.09.11
_ Max-Zeit 14:50 08:25 04:25 23:30 - 17:35 14:20 16:05
Maximum _ 27,8 C 100 % 1024,1 hPa 8,6 l/m - 0,08 h 976 W/m 49,9 km/h
W (6 Bft)
Durchschnitt _ 16,8 C 82 % 1014,2 hPa #30,4 l/m W-SW #38:20 h 271 W/m 10,5 km/h (2 Bft)